createdAt,value
2022-09-25T00:01:30.199Z,100.00
2022-09-25T00:03:58.717Z,100.00
2022-09-25T00:06:28.443Z,100.00
2022-09-25T00:08:57.904Z,100.00
2022-09-25T00:11:32.896Z,100.00
2022-09-25T00:14:02.457Z,100.00
2022-09-25T00:16:32.948Z,100.00
2022-09-25T00:19:20.295Z,100.00
2022-09-25T00:21:53.156Z,100.00
2022-09-25T00:24:21.378Z,100.00
2022-09-25T00:26:50.082Z,100.00
2022-09-25T00:29:20.843Z,100.00
2022-09-25T00:31:49.562Z,100.00
2022-09-25T00:34:17.975Z,100.00
2022-09-25T00:36:46.300Z,100.00
2022-09-25T00:39:14.331Z,100.00
2022-09-25T00:41:42.953Z,100.00
2022-09-25T00:44:48.971Z,100.00
2022-09-25T00:47:21.794Z,100.00
2022-09-25T00:49:50.790Z,100.00
2022-09-25T00:52:19.868Z,100.00
2022-09-25T00:55:00.389Z,100.00
2022-09-25T00:57:32.549Z,100.00
2022-09-25T01:00:07.645Z,100.00
2022-09-25T01:02:40.177Z,100.00
2022-09-25T01:05:15.970Z,100.00
2022-09-25T01:07:46.610Z,100.00
2022-09-25T01:10:15.961Z,100.00
2022-09-25T01:12:46.515Z,100.00
2022-09-25T01:15:19.285Z,100.00
2022-09-25T01:18:09.474Z,100.00
2022-09-25T01:21:02.801Z,100.00
2022-09-25T01:24:01.822Z,100.00
2022-09-25T01:27:07.157Z,100.00
2022-09-25T01:29:38.262Z,100.00
2022-09-25T01:32:33.828Z,100.00
2022-09-25T01:35:52.844Z,100.00
2022-09-25T01:38:38.767Z,100.00
2022-09-25T01:41:13.524Z,100.00
2022-09-25T01:43:48.249Z,100.00
2022-09-25T01:46:24.751Z,100.00
2022-09-25T01:48:56.329Z,100.00
2022-09-25T01:51:31.093Z,100.00
2022-09-25T01:54:03.522Z,100.00
2022-09-25T01:56:37.214Z,100.00
2022-09-25T01:59:17.787Z,100.00
2022-09-25T02:01:47.227Z,100.00
2022-09-25T02:04:32.655Z,100.00
2022-09-25T02:07:05.522Z,100.00
2022-09-25T02:09:44.409Z,100.00
2022-09-25T02:12:15.703Z,100.00
2022-09-25T02:14:59.790Z,100.00
2022-09-25T02:17:57.714Z,100.00
2022-09-25T02:20:32.368Z,100.00
2022-09-25T02:23:23.755Z,100.00
2022-09-25T02:25:57.074Z,100.00
2022-09-25T02:28:25.194Z,100.00
2022-09-25T02:30:56.119Z,100.00
2022-09-25T02:33:25.425Z,100.00
2022-09-25T02:35:54.087Z,100.00
2022-09-25T02:38:22.416Z,100.00
2022-09-25T02:41:18.031Z,100.00
2022-09-25T02:44:24.046Z,100.00
2022-09-25T02:47:14.286Z,100.00
2022-09-25T02:49:52.552Z,100.00
2022-09-25T02:52:53.870Z,100.00
2022-09-25T02:55:34.258Z,100.00
2022-09-25T02:58:17.969Z,100.00
2022-09-25T03:00:49.509Z,100.00
2022-09-25T03:03:19.892Z,100.00
2022-09-25T03:05:49.493Z,100.00
2022-09-25T03:08:36.830Z,100.00
2022-09-25T03:11:07.528Z,100.00
2022-09-25T03:13:36.385Z,100.00
2022-09-25T03:16:07.749Z,100.00
2022-09-25T03:18:36.547Z,100.00
2022-09-25T03:21:06.036Z,100.00
2022-09-25T03:23:34.847Z,100.00
2022-09-25T03:26:04.639Z,100.00
2022-09-25T03:28:33.004Z,100.00
2022-09-25T03:31:06.914Z,100.00
2022-09-25T03:33:40.484Z,100.00
2022-09-25T03:36:14.780Z,100.00
2022-09-25T03:38:43.651Z,100.00
2022-09-25T03:41:13.194Z,100.00
2022-09-25T03:43:43.744Z,100.00
2022-09-25T03:46:14.056Z,100.00
2022-09-25T03:48:42.932Z,100.00
2022-09-25T03:51:11.442Z,100.00
2022-09-25T03:53:40.260Z,100.00
2022-09-25T03:56:11.855Z,100.00
2022-09-25T03:58:41.405Z,100.00
2022-09-25T04:01:11.142Z,100.00
2022-09-25T04:03:40.108Z,100.00
2022-09-25T04:06:09.144Z,100.00
2022-09-25T04:08:37.704Z,100.00
2022-09-25T04:11:05.969Z,100.00
2022-09-25T04:13:42.030Z,100.00
2022-09-25T04:16:11.655Z,100.00
2022-09-25T04:18:42.460Z,100.00
2022-09-25T04:21:12.745Z,100.00
2022-09-25T04:23:41.599Z,100.00
2022-09-25T04:26:10.676Z,100.00
2022-09-25T04:28:39.154Z,100.00
2022-09-25T04:31:07.530Z,100.00
2022-09-25T04:33:47.736Z,100.00
2022-09-25T04:36:19.265Z,100.00
2022-09-25T04:38:48.486Z,100.00
2022-09-25T04:41:20.221Z,100.00
2022-09-25T04:43:48.682Z,100.00
2022-09-25T04:46:21.811Z,100.00
2022-09-25T04:48:50.961Z,100.00
2022-09-25T04:51:18.874Z,100.00
2022-09-25T04:53:47.034Z,100.00
2022-09-25T04:56:16.751Z,100.00
2022-09-25T04:58:46.653Z,100.00
2022-09-25T05:01:15.202Z,100.00
2022-09-25T05:03:43.710Z,100.00
2022-09-25T05:06:12.081Z,100.00
2022-09-25T05:08:39.765Z,100.00
2022-09-25T05:11:08.491Z,100.00
2022-09-25T05:13:37.119Z,100.00
2022-09-25T05:16:05.481Z,100.00
2022-09-25T05:18:34.180Z,100.00
2022-09-25T05:21:05.486Z,100.00
2022-09-25T05:23:33.226Z,100.00
2022-09-25T05:26:02.921Z,100.00
2022-09-25T05:28:32.558Z,100.00
2022-09-25T05:31:04.376Z,100.00
2022-09-25T05:33:34.457Z,100.00
2022-09-25T05:36:06.271Z,100.00
2022-09-25T05:38:36.739Z,100.00
2022-09-25T05:41:07.115Z,100.00
2022-09-25T05:43:40.751Z,100.00
2022-09-25T05:46:10.601Z,100.00
2022-09-25T05:48:39.127Z,100.00
2022-09-25T05:51:07.577Z,100.00
2022-09-25T05:53:35.291Z,100.00
2022-09-25T05:56:05.822Z,100.00
2022-09-25T05:58:35.589Z,100.00
2022-09-25T06:01:07.097Z,100.00
2022-09-25T06:03:36.595Z,100.00
2022-09-25T06:06:06.193Z,100.00
2022-09-25T06:08:38.040Z,100.00
2022-09-25T06:11:06.783Z,100.00
2022-09-25T06:13:37.338Z,100.00
2022-09-25T06:16:12.433Z,100.00
2022-09-25T06:18:40.668Z,100.00
2022-09-25T06:21:09.551Z,100.00
2022-09-25T06:23:37.674Z,100.00
2022-09-25T06:26:10.498Z,100.00
2022-09-25T06:28:40.293Z,100.00
2022-09-25T06:31:09.258Z,100.00
2022-09-25T06:33:37.386Z,100.00
2022-09-25T06:36:06.469Z,100.00
2022-09-25T06:38:35.328Z,100.00
2022-09-25T06:41:04.045Z,100.00
2022-09-25T06:43:32.531Z,100.00
2022-09-25T06:46:05.149Z,100.00
2022-09-25T06:48:33.716Z,100.00
2022-09-25T06:51:02.312Z,100.00
2022-09-25T06:53:31.074Z,100.00
2022-09-25T06:56:00.533Z,100.00
2022-09-25T06:58:30.689Z,100.00
2022-09-25T07:00:59.752Z,100.00
2022-09-25T07:03:47.337Z,100.00
2022-09-25T07:06:22.656Z,100.00
2022-09-25T07:08:52.336Z,98.74
2022-09-25T07:11:24.730Z,100.00
2022-09-25T07:13:55.596Z,98.54
2022-09-25T07:16:27.754Z,95.94
2022-09-25T07:18:57.815Z,95.72
2022-09-25T07:21:28.393Z,94.39
2022-09-25T07:23:59.003Z,94.94
2022-09-25T07:26:29.650Z,93.33
2022-09-25T07:29:00.784Z,90.09
2022-09-25T07:31:32.021Z,90.58
2022-09-25T07:34:03.201Z,89.74
2022-09-25T07:36:32.029Z,93.03
2022-09-25T07:39:00.481Z,87.41
2022-09-25T07:41:29.330Z,86.21
2022-09-25T07:44:18.158Z,85.51
2022-09-25T07:46:47.758Z,84.57
2022-09-25T07:49:16.266Z,84.23
2022-09-25T07:51:44.490Z,85.36
2022-09-25T07:54:13.550Z,82.19
2022-09-25T07:56:42.183Z,82.36
2022-09-25T07:59:09.964Z,82.36
2022-09-25T08:01:43.652Z,82.91
2022-09-25T08:04:14.626Z,79.53
2022-09-25T08:06:43.381Z,79.76
2022-09-25T08:09:12.360Z,79.92
2022-09-25T08:11:40.678Z,78.46
2022-09-25T08:14:08.581Z,76.52
2022-09-25T08:16:37.004Z,74.06
2022-09-25T08:19:05.583Z,75.14
2022-09-25T08:21:34.525Z,76.25
2022-09-25T08:24:02.928Z,69.85
2022-09-25T08:26:32.291Z,69.95
2022-09-25T08:29:01.152Z,71.60
2022-09-25T08:31:29.805Z,73.45
2022-09-25T08:34:09.926Z,69.27
2022-09-25T08:36:50.286Z,69.42
2022-09-25T08:39:19.033Z,67.39
2022-09-25T08:41:47.897Z,69.24
2022-09-25T08:44:19.302Z,68.07
2022-09-25T08:47:28.518Z,68.40
2022-09-25T08:50:14.736Z,69.87
2022-09-25T08:52:46.372Z,70.96
2022-09-25T08:55:24.654Z,66.99
2022-09-25T08:57:55.930Z,66.63
2022-09-25T09:00:24.547Z,65.78
2022-09-25T09:02:55.740Z,64.96
2022-09-25T09:05:35.562Z,64.95
2022-09-25T09:08:08.431Z,68.13
2022-09-25T09:10:41.881Z,68.49
2022-09-25T09:13:21.410Z,68.35
2022-09-25T09:15:50.231Z,69.76
2022-09-25T09:18:26.601Z,70.42
2022-09-25T09:20:58.419Z,68.47
2022-09-25T09:23:36.791Z,69.78
2022-09-25T09:26:11.314Z,68.87
2022-09-25T09:29:00.479Z,68.26
2022-09-25T09:31:53.741Z,69.60
2022-09-25T09:35:01.095Z,67.97
2022-09-25T09:37:58.823Z,68.17
2022-09-25T09:40:36.669Z,66.57
2022-09-25T09:43:29.591Z,69.30
2022-09-25T09:46:06.491Z,67.46
2022-09-25T09:48:41.844Z,64.96
2022-09-25T09:51:14.341Z,66.41
2022-09-25T09:53:54.953Z,64.59
2022-09-25T09:56:26.308Z,67.69
2022-09-25T09:59:14.554Z,65.96
2022-09-25T10:01:43.402Z,64.46
2022-09-25T10:04:15.168Z,62.70
2022-09-25T10:07:07.001Z,65.29
2022-09-25T10:09:36.889Z,66.71
2022-09-25T10:12:27.811Z,67.87
2022-09-25T10:14:56.706Z,64.53
2022-09-25T10:17:25.012Z,62.35
2022-09-25T10:19:59.089Z,62.58
2022-09-25T10:22:39.222Z,63.30
2022-09-25T10:25:07.522Z,65.56
2022-09-25T10:27:38.755Z,62.35
2022-09-25T10:30:12.488Z,62.37
2022-09-25T10:32:44.018Z,61.71
2022-09-25T10:35:19.629Z,62.96
2022-09-25T10:37:59.163Z,62.29
2022-09-25T10:40:35.868Z,60.99
2022-09-25T10:43:05.419Z,63.25
2022-09-25T10:45:36.006Z,61.67
2022-09-25T10:48:47.856Z,59.94
2022-09-25T10:51:21.506Z,62.58
2022-09-25T10:53:53.195Z,61.10
2022-09-25T10:56:24.586Z,62.79
2022-09-25T10:59:02.059Z,60.34
2022-09-25T11:01:36.941Z,58.26
2022-09-25T11:04:12.321Z,58.61
2022-09-25T11:06:46.615Z,58.63
2022-09-25T11:09:15.901Z,57.88
2022-09-25T11:11:46.638Z,59.06
2022-09-25T11:14:22.142Z,62.32
2022-09-25T11:16:54.582Z,59.95
2022-09-25T11:19:37.123Z,55.85
2022-09-25T11:22:26.215Z,55.54
2022-09-25T11:25:01.663Z,54.46
2022-09-25T11:28:24.847Z,55.63
2022-09-25T11:31:18.889Z,56.29
2022-09-25T11:34:04.041Z,55.94
2022-09-25T11:36:44.178Z,53.63
2022-09-25T11:40:02.453Z,54.04
2022-09-25T11:42:36.959Z,55.54
2022-09-25T11:45:15.452Z,52.54
2022-09-25T11:47:54.914Z,56.67
2022-09-25T11:50:38.433Z,59.43
2022-09-25T11:53:24.697Z,55.78
2022-09-25T11:56:13.147Z,56.52
2022-09-25T11:58:46.753Z,55.51
2022-09-25T12:01:36.746Z,55.42
2022-09-25T12:04:27.995Z,55.61
2022-09-25T12:07:14.728Z,56.75
2022-09-25T12:10:04.596Z,57.07
2022-09-25T12:13:05.724Z,57.56
2022-09-25T12:15:53.192Z,57.69
2022-09-25T12:18:44.343Z,57.55
2022-09-25T12:21:21.580Z,58.16
2022-09-25T12:24:18.425Z,55.64
2022-09-25T12:27:24.391Z,54.08
2022-09-25T12:30:16.474Z,56.70
2022-09-25T12:32:44.779Z,53.63
2022-09-25T12:35:43.950Z,53.47
2022-09-25T12:38:41.075Z,51.83
2022-09-25T12:41:19.074Z,53.96
2022-09-25T12:44:05.022Z,54.18
2022-09-25T12:46:41.530Z,54.71
2022-09-25T12:49:18.143Z,53.79
2022-09-25T12:51:51.129Z,55.89
2022-09-25T12:54:45.945Z,56.00
2022-09-25T12:57:34.952Z,57.02
2022-09-25T13:00:10.722Z,58.28
2022-09-25T13:02:44.381Z,57.42
2022-09-25T13:05:31.550Z,54.60
2022-09-25T13:08:07.910Z,54.83
2022-09-25T13:10:41.790Z,55.21
2022-09-25T13:13:20.618Z,58.31
2022-09-25T13:15:58.444Z,59.11
2022-09-25T13:18:29.776Z,57.85
2022-09-25T13:21:25.240Z,58.00
2022-09-25T13:23:54.576Z,55.95
2022-09-25T13:26:25.347Z,59.00
2022-09-25T13:28:57.735Z,59.62
2022-09-25T13:31:31.270Z,58.05
2022-09-25T13:34:02.415Z,58.53
2022-09-25T13:36:46.845Z,60.35
2022-09-25T13:39:36.340Z,59.40
2022-09-25T13:42:29.916Z,60.13
2022-09-25T13:45:18.620Z,58.85
2022-09-25T13:47:57.491Z,58.75
2022-09-25T13:50:47.766Z,58.30
2022-09-25T13:53:21.768Z,59.72
2022-09-25T13:55:56.071Z,59.27
2022-09-25T13:58:26.194Z,57.24
2022-09-25T14:00:58.141Z,59.42
2022-09-25T14:03:30.846Z,63.20
2022-09-25T14:06:00.550Z,59.61
2022-09-25T14:08:32.153Z,60.60
2022-09-25T14:11:04.838Z,59.83
2022-09-25T14:13:34.293Z,59.66
2022-09-25T14:16:04.965Z,61.66
2022-09-25T14:18:39.794Z,59.44
2022-09-25T14:21:10.140Z,60.06
2022-09-25T14:23:53.694Z,62.06
2022-09-25T14:26:28.796Z,62.04
2022-09-25T14:28:58.474Z,65.69
2022-09-25T14:31:33.039Z,66.68
2022-09-25T14:34:38.854Z,72.50
2022-09-25T14:37:25.520Z,72.17
2022-09-25T14:40:11.834Z,76.34
2022-09-25T14:43:06.104Z,78.46
2022-09-25T14:45:40.381Z,81.17
2022-09-25T14:48:16.428Z,84.41
2022-09-25T14:50:48.701Z,79.97
2022-09-25T14:53:28.013Z,75.56
2022-09-25T14:55:57.157Z,77.09
2022-09-25T14:58:29.427Z,75.45
2022-09-25T15:01:10.999Z,76.04
2022-09-25T15:03:44.082Z,75.85
2022-09-25T15:06:16.168Z,83.74
2022-09-25T15:08:44.658Z,80.52
2022-09-25T15:11:18.145Z,80.66
2022-09-25T15:13:46.583Z,77.53
2022-09-25T15:16:43.812Z,78.29
2022-09-25T15:19:33.673Z,79.56
2022-09-25T15:22:02.294Z,80.90
2022-09-25T15:24:32.480Z,80.55
2022-09-25T15:27:07.029Z,83.31
2022-09-25T15:29:42.194Z,83.86
2022-09-25T15:32:39.910Z,84.27
2022-09-25T15:35:21.612Z,84.67
2022-09-25T15:37:50.315Z,84.77
2022-09-25T15:40:29.148Z,86.29
2022-09-25T15:42:57.569Z,83.15
2022-09-25T15:45:34.940Z,83.66
2022-09-25T15:48:09.626Z,89.52
2022-09-25T15:50:38.395Z,90.49
2022-09-25T15:53:06.599Z,93.18
2022-09-25T15:55:34.887Z,96.39
2022-09-25T15:58:11.150Z,97.25
2022-09-25T16:00:58.163Z,97.58
2022-09-25T16:03:48.728Z,98.45
2022-09-25T16:06:17.367Z,100.00
2022-09-25T16:08:45.884Z,100.00
2022-09-25T16:11:22.248Z,100.00
2022-09-25T16:14:12.687Z,100.00
2022-09-25T16:16:47.314Z,100.00
2022-09-25T16:19:28.663Z,100.00
2022-09-25T16:22:00.195Z,100.00
2022-09-25T16:24:29.941Z,100.00
2022-09-25T16:27:03.052Z,100.00
2022-09-25T16:29:37.700Z,100.00
2022-09-25T16:32:15.949Z,100.00
2022-09-25T16:34:56.399Z,100.00
2022-09-25T16:37:32.005Z,100.00
2022-09-25T16:40:19.234Z,100.00
2022-09-25T16:42:47.719Z,100.00
2022-09-25T16:45:16.335Z,100.00
2022-09-25T16:47:49.296Z,100.00
2022-09-25T16:50:20.785Z,100.00
2022-09-25T16:52:49.987Z,100.00
2022-09-25T16:55:29.433Z,100.00
2022-09-25T16:57:59.549Z,100.00
2022-09-25T17:00:30.183Z,100.00
2022-09-25T17:02:59.571Z,100.00
2022-09-25T17:05:30.488Z,100.00
2022-09-25T17:08:01.016Z,100.00
2022-09-25T17:10:32.110Z,100.00
2022-09-25T17:13:02.163Z,100.00
2022-09-25T17:15:35.709Z,100.00
2022-09-25T17:18:11.216Z,100.00
2022-09-25T17:20:39.172Z,100.00
2022-09-25T17:23:07.744Z,100.00
2022-09-25T17:26:00.252Z,100.00
2022-09-25T17:28:29.861Z,100.00
2022-09-25T17:30:58.233Z,100.00
2022-09-25T17:33:27.787Z,100.00
2022-09-25T17:36:04.023Z,100.00
2022-09-25T17:38:34.229Z,100.00
2022-09-25T17:41:06.040Z,100.00
2022-09-25T17:43:35.064Z,100.00
2022-09-25T17:46:03.600Z,100.00
2022-09-25T17:48:32.260Z,100.00
2022-09-25T17:51:02.306Z,100.00
2022-09-25T17:53:32.911Z,100.00
2022-09-25T17:56:02.148Z,100.00
2022-09-25T17:58:31.898Z,100.00
2022-09-25T18:01:01.569Z,100.00
2022-09-25T18:03:31.109Z,100.00
2022-09-25T18:05:59.550Z,100.00
2022-09-25T18:08:27.816Z,100.00
2022-09-25T18:11:01.586Z,100.00
2022-09-25T18:13:30.079Z,100.00
2022-09-25T18:15:59.759Z,100.00
2022-09-25T18:18:50.587Z,100.00
2022-09-25T18:21:37.804Z,100.00
2022-09-25T18:24:05.918Z,100.00
2022-09-25T18:26:34.833Z,100.00
2022-09-25T18:29:02.773Z,100.00
2022-09-25T18:31:31.004Z,100.00
2022-09-25T18:33:59.515Z,100.00
2022-09-25T18:36:29.247Z,100.00
2022-09-25T18:38:57.082Z,100.00
2022-09-25T18:41:25.419Z,100.00
2022-09-25T18:43:54.318Z,100.00
2022-09-25T18:46:22.259Z,100.00
2022-09-25T18:48:50.616Z,100.00
2022-09-25T18:51:18.937Z,100.00
2022-09-25T18:53:51.781Z,100.00
2022-09-25T18:56:21.755Z,100.00
2022-09-25T18:58:50.010Z,100.00
2022-09-25T19:01:18.797Z,100.00
2022-09-25T19:03:52.287Z,100.00
2022-09-25T19:06:20.760Z,100.00
2022-09-25T19:08:57.506Z,100.00
2022-09-25T19:11:27.104Z,100.00
2022-09-25T19:13:56.656Z,100.00
2022-09-25T19:16:25.378Z,100.00
2022-09-25T19:18:54.716Z,100.00
2022-09-25T19:21:23.329Z,100.00
2022-09-25T19:23:51.230Z,100.00
2022-09-25T19:26:28.615Z,100.00
2022-09-25T19:28:57.272Z,100.00
2022-09-25T19:31:26.425Z,100.00
2022-09-25T19:33:55.773Z,100.00
2022-09-25T19:36:32.341Z,100.00
2022-09-25T19:39:02.246Z,100.00
2022-09-25T19:41:34.473Z,100.00
2022-09-25T19:44:12.294Z,100.00
2022-09-25T19:46:46.438Z,100.00
2022-09-25T19:49:16.963Z,100.00
2022-09-25T19:51:45.632Z,100.00
2022-09-25T19:54:15.471Z,100.00
2022-09-25T19:56:43.765Z,100.00
2022-09-25T19:59:16.358Z,100.00
2022-09-25T20:01:45.134Z,100.00
2022-09-25T20:04:18.642Z,100.00
2022-09-25T20:06:47.744Z,100.00
2022-09-25T20:09:16.951Z,100.00
2022-09-25T20:11:46.454Z,100.00
2022-09-25T20:14:15.052Z,100.00
2022-09-25T20:16:42.928Z,100.00
2022-09-25T20:19:10.817Z,100.00
2022-09-25T20:21:42.003Z,100.00
2022-09-25T20:24:10.050Z,100.00
2022-09-25T20:26:39.405Z,100.00
2022-09-25T20:29:12.220Z,100.00
2022-09-25T20:31:42.943Z,100.00
2022-09-25T20:34:16.369Z,100.00
2022-09-25T20:36:45.825Z,100.00
2022-09-25T20:39:20.601Z,100.00
2022-09-25T20:41:50.247Z,100.00
2022-09-25T20:44:19.059Z,100.00
2022-09-25T20:46:47.443Z,100.00
2022-09-25T20:49:20.107Z,100.00
2022-09-25T20:51:48.739Z,100.00
2022-09-25T20:54:17.024Z,100.00
2022-09-25T20:56:45.733Z,100.00
2022-09-25T20:59:16.782Z,100.00
2022-09-25T21:01:45.261Z,100.00
2022-09-25T21:04:14.747Z,100.00
2022-09-25T21:06:42.736Z,100.00
2022-09-25T21:09:21.250Z,100.00
2022-09-25T21:11:49.793Z,100.00
2022-09-25T21:14:23.264Z,100.00
2022-09-25T21:16:56.376Z,100.00
2022-09-25T21:19:24.817Z,100.00
2022-09-25T21:21:53.530Z,100.00
2022-09-25T21:24:22.182Z,100.00
2022-09-25T21:26:51.444Z,100.00
2022-09-25T21:29:20.311Z,100.00
2022-09-25T21:31:50.558Z,100.00
2022-09-25T21:34:20.299Z,100.00
2022-09-25T21:36:49.393Z,100.00
2022-09-25T21:39:19.104Z,100.00
2022-09-25T21:41:49.452Z,100.00
2022-09-25T21:44:20.817Z,100.00
2022-09-25T21:46:49.392Z,100.00
2022-09-25T21:49:20.379Z,100.00
2022-09-25T21:51:49.869Z,100.00
2022-09-25T21:54:18.889Z,100.00
2022-09-25T21:56:49.461Z,100.00
2022-09-25T21:59:17.800Z,100.00
2022-09-25T22:01:46.883Z,100.00
2022-09-25T22:04:16.080Z,100.00
2022-09-25T22:06:47.486Z,100.00
2022-09-25T22:09:22.042Z,100.00
2022-09-25T22:11:51.765Z,100.00
2022-09-25T22:14:21.390Z,100.00
2022-09-25T22:16:51.840Z,100.00
2022-09-25T22:19:24.381Z,100.00
2022-09-25T22:21:54.031Z,100.00
2022-09-25T22:24:22.815Z,100.00
2022-09-25T22:26:54.259Z,100.00
2022-09-25T22:29:23.704Z,100.00
2022-09-25T22:31:52.338Z,100.00
2022-09-25T22:34:27.978Z,100.00
2022-09-25T22:36:59.850Z,100.00
2022-09-25T22:39:29.766Z,100.00
2022-09-25T22:41:58.974Z,100.00
2022-09-25T22:44:27.439Z,100.00
2022-09-25T22:46:56.475Z,100.00
2022-09-25T22:49:25.298Z,100.00
2022-09-25T22:51:53.470Z,100.00
2022-09-25T22:54:21.602Z,100.00
2022-09-25T22:56:49.959Z,100.00
2022-09-25T22:59:18.577Z,100.00
2022-09-25T23:01:53.097Z,100.00
2022-09-25T23:04:23.785Z,100.00
2022-09-25T23:06:52.318Z,100.00
2022-09-25T23:09:23.114Z,100.00
2022-09-25T23:11:51.550Z,100.00
2022-09-25T23:14:23.135Z,100.00
2022-09-25T23:16:53.643Z,100.00
2022-09-25T23:19:22.922Z,100.00
2022-09-25T23:21:55.137Z,100.00
2022-09-25T23:24:23.601Z,100.00
2022-09-25T23:26:52.224Z,100.00
2022-09-25T23:29:21.906Z,100.00
2022-09-25T23:31:50.786Z,100.00
2022-09-25T23:34:20.145Z,100.00
2022-09-25T23:36:48.620Z,100.00
2022-09-25T23:39:19.385Z,100.00
2022-09-25T23:41:48.256Z,100.00
2022-09-25T23:44:16.459Z,100.00
2022-09-25T23:46:45.265Z,100.00
2022-09-25T23:49:15.090Z,100.00
2022-09-25T23:51:43.759Z,100.00
2022-09-25T23:54:13.057Z,100.00
2022-09-25T23:56:41.903Z,100.00
2022-09-25T23:59:12.354Z,100.00
